Time;durP1;ratioP1;P1;durP2;ratioP2;P2;SDS_P1;SDS_P2;PMS_P1;PMS_P2;Temp;Humidity;BMP_temperature;BMP_pressure;BME280_temperature;BME280_humidity;BME280_pressure;Samples;Min_cycle;Max_cycle;Signal;HPM_P1;HPM_P2
2022/07/15 00:00:15;;;;;;;0.90;0.90;;;25.90;45.80;;;;;;5050439;28;20445;-76
2022/07/15 00:02:43;;;;;;;2.73;1.27;;;25.90;45.80;;;;;;5050700;28;20477;-76
2022/07/15 00:05:11;;;;;;;1.63;1.40;;;25.90;45.80;;;;;;5044573;28;20798;-76
2022/07/15 00:07:39;;;;;;;1.93;1.10;;;25.90;45.80;;;;;;5052918;28;20538;-76
2022/07/15 00:10:16;;;;;;;1.77;1.07;;;25.90;45.80;;;;;;5052811;28;20421;-76
2022/07/15 00:12:44;;;;;;;4.23;1.77;;;25.90;45.70;;;;;;5052812;28;20466;-76
2022/07/15 00:15:12;;;;;;;2.03;1.10;;;25.90;45.80;;;;;;5052513;28;20447;-76
2022/07/15 00:17:40;;;;;;;4.07;1.27;;;25.90;45.80;;;;;;5052201;28;20466;-76
2022/07/15 00:20:09;;;;;;;1.70;1.60;;;25.90;45.80;;;;;;5052618;28;20462;-76
2022/07/15 00:22:37;;;;;;;6.80;1.40;;;25.80;45.80;;;;;;5052788;28;20550;-76
2022/07/15 00:25:05;;;;;;;2.77;1.27;;;25.90;46.50;;;;;;5052618;28;20401;-76
2022/07/15 00:27:34;;;;;;;2.00;1.40;;;25.80;45.80;;;;;;5052502;28;20779;-76
2022/07/15 00:30:02;;;;;;;2.17;1.33;;;25.80;45.80;;;;;;5052200;28;20409;-76
2022/07/15 00:32:30;;;;;;;1.23;1.10;;;25.80;45.70;;;;;;5052569;28;20421;-76
2022/07/15 00:34:58;;;;;;;2.00;1.13;;;25.80;45.80;;;;;;5052270;28;20449;-76
2022/07/15 00:37:26;;;;;;;2.20;1.13;;;25.90;45.70;;;;;;5052596;28;20448;-76
2022/07/15 00:39:54;;;;;;;2.97;1.30;;;25.90;45.80;;;;;;5052372;28;20448;-76
2022/07/15 00:45:05;;;;;;;3.73;1.47;;;25.80;45.70;;;;;;5051337;28;20525;-76
2022/07/15 00:47:33;;;;;;;2.47;1.33;;;25.80;45.70;;;;;;5052411;28;20438;-76
2022/07/15 00:50:01;;;;;;;1.97;1.30;;;25.70;45.70;;;;;;5052515;28;20417;-76
2022/07/15 00:52:29;;;;;;;1.73;1.40;;;25.70;45.70;;;;;;5052071;28;20421;-76
2022/07/15 00:54:58;;;;;;;1.80;1.20;;;25.70;45.50;;;;;;5051935;28;20557;-76
2022/07/15 00:57:26;;;;;;;1.83;1.20;;;25.70;45.60;;;;;;5051898;28;20453;-76
2022/07/15 00:59:54;;;;;;;1.23;1.13;;;25.70;45.60;;;;;;5052343;28;20775;-76
2022/07/15 01:02:24;;;;;;;1.63;1.13;;;25.70;45.60;;;;;;5051794;28;20442;-76
2022/07/15 01:04:52;;;;;;;5.57;1.40;;;25.70;45.60;;;;;;5052003;28;20427;-76
2022/07/15 01:07:20;;;;;;;2.10;0.90;;;25.70;45.60;;;;;;5051993;28;20421;-76
2022/07/15 01:09:48;;;;;;;1.63;1.20;;;25.70;45.60;;;;;;5051946;28;20525;-77
2022/07/15 01:12:16;;;;;;;1.93;1.20;;;25.70;45.60;;;;;;5051657;28;20432;-76
2022/07/15 01:14:43;;;;;;;1.40;1.17;;;25.70;45.70;;;;;;5051747;28;20470;-76
2022/07/15 01:17:12;;;;;;;1.67;1.30;;;25.70;45.70;;;;;;5051697;28;20449;-76
2022/07/15 01:19:41;;;;;;;1.73;0.80;;;25.70;45.80;;;;;;5051691;28;20446;-76
2022/07/15 01:22:10;;;;;;;1.30;1.20;;;25.70;45.70;;;;;;5031981;28;20414;-77
2022/07/15 01:24:38;;;;;;;4.97;1.20;;;25.70;45.70;;;;;;5031744;28;20465;-76
2022/07/15 01:27:07;;;;;;;3.53;1.10;;;25.60;45.70;;;;;;5031601;28;20414;-76
2022/07/15 01:29:35;;;;;;;1.20;1.10;;;25.60;45.70;;;;;;5031080;28;20526;-77
2022/07/15 01:32:03;;;;;;;2.50;1.43;;;25.60;45.70;;;;;;5031548;28;20526;-76
2022/07/15 01:34:31;;;;;;;2.43;1.23;;;25.60;45.80;;;;;;5031490;28;20456;-76
2022/07/15 01:36:59;;;;;;;1.50;1.07;;;25.60;45.80;;;;;;5031392;28;20430;-77
2022/07/15 01:39:29;;;;;;;3.00;1.20;;;25.50;45.80;;;;;;5031742;28;20414;-77
2022/07/15 01:42:05;;;;;;;2.00;1.20;;;25.50;45.80;;;;;;5031534;28;20409;-76
2022/07/15 01:44:33;;;;;;;0.90;0.90;;;25.50;45.70;;;;;;5031527;28;20520;-76
2022/07/15 01:47:01;;;;;;;5.90;1.77;;;25.50;45.80;;;;;;5031516;28;20414;-77
2022/07/15 01:49:31;;;;;;;1.67;1.20;;;25.50;45.80;;;;;;5031214;28;20438;-76
2022/07/15 01:52:00;;;;;;;1.93;1.20;;;25.50;45.80;;;;;;5031300;28;20446;-76
2022/07/15 01:54:30;;;;;;;2.03;1.13;;;25.50;45.80;;;;;;5031288;28;20465;-76
2022/07/15 01:56:58;;;;;;;1.90;1.20;;;25.40;45.80;;;;;;5031103;28;20456;-76
2022/07/15 01:59:27;;;;;;;2.13;1.20;;;25.40;45.80;;;;;;5031518;28;20534;-76
2022/07/15 02:01:57;;;;;;;3.07;1.27;;;25.40;45.90;;;;;;5031274;28;20542;-76
2022/07/15 02:04:25;;;;;;;2.50;1.30;;;25.40;45.80;;;;;;5031241;28;20442;-77
2022/07/15 02:06:53;;;;;;;1.53;1.23;;;25.40;45.90;;;;;;5031272;28;20497;-76
2022/07/15 02:09:21;;;;;;;1.40;1.30;;;25.40;45.70;;;;;;5031097;28;20928;-77
2022/07/15 02:11:50;;;;;;;2.97;1.10;;;25.40;45.80;;;;;;5031355;28;20470;-76
2022/07/15 02:14:19;;;;;;;2.90;1.30;;;25.40;45.80;;;;;;5030678;28;20452;-76
2022/07/15 02:16:47;;;;;;;1.30;1.20;;;25.40;45.80;;;;;;5031185;28;20812;-77
2022/07/15 02:19:15;;;;;;;2.20;1.20;;;25.40;45.90;;;;;;5031255;28;20448;-77
2022/07/15 02:21:43;;;;;;;2.03;1.33;;;25.40;45.70;;;;;;5046750;28;20533;-77
2022/07/15 02:24:11;;;;;;;2.00;1.10;;;25.40;45.80;;;;;;5051085;28;20437;-76
2022/07/15 02:26:39;;;;;;;6.23;1.30;;;25.40;45.90;;;;;;5050943;28;20436;-76
2022/07/15 02:29:08;;;;;;;2.07;1.00;;;25.30;45.80;;;;;;5051276;28;20522;-77
2022/07/15 02:31:36;;;;;;;4.03;1.70;;;25.30;45.90;;;;;;5051173;28;20513;-76
2022/07/15 02:34:04;;;;;;;2.80;1.50;;;25.30;45.80;;;;;;5050808;28;20448;-76
2022/07/15 02:36:32;;;;;;;1.63;1.00;;;25.30;45.80;;;;;;5050933;28;20509;-76
2022/07/15 02:39:00;;;;;;;1.87;1.10;;;25.30;46.00;;;;;;5050832;28;20409;-76
2022/07/15 02:41:27;;;;;;;2.10;1.10;;;25.20;45.80;;;;;;5054566;28;20507;-76
2022/07/15 02:43:56;;;;;;;3.07;1.30;;;25.20;46.00;;;;;;5054556;28;21011;-76
2022/07/15 02:46:26;;;;;;;3.37;1.33;;;25.20;45.90;;;;;;5054405;28;20443;-76
2022/07/15 02:48:54;;;;;;;3.37;1.13;;;25.20;46.00;;;;;;5054688;28;20453;-76
2022/07/15 02:51:22;;;;;;;2.43;1.13;;;25.20;46.00;;;;;;5054720;28;20420;-76
2022/07/15 02:53:49;;;;;;;2.80;1.27;;;25.20;46.00;;;;;;5054256;28;20517;-76
2022/07/15 02:56:17;;;;;;;3.23;1.40;;;25.20;46.00;;;;;;5054355;28;20482;-77
2022/07/15 02:58:45;;;;;;;3.10;1.10;;;25.20;46.20;;;;;;5054449;28;20415;-76
2022/07/15 03:01:13;;;;;;;3.93;1.23;;;25.10;46.10;;;;;;5054110;28;20419;-76
2022/07/15 03:03:42;;;;;;;2.10;1.40;;;25.10;46.10;;;;;;5054272;28;20458;-76
2022/07/15 03:06:10;;;;;;;3.23;1.43;;;25.10;46.10;;;;;;5053585;28;20518;-76
2022/07/15 03:08:38;;;;;;;2.60;1.30;;;25.10;46.10;;;;;;5054030;28;20439;-76
2022/07/15 03:11:06;;;;;;;3.33;1.37;;;25.10;46.20;;;;;;5053896;28;20500;-76
2022/07/15 03:13:34;;;;;;;1.50;1.10;;;25.10;46.10;;;;;;5053886;28;20518;-76
2022/07/15 03:16:01;;;;;;;2.00;1.20;;;25.10;46.10;;;;;;5053723;28;20477;-76
2022/07/15 03:18:29;;;;;;;2.17;1.40;;;25.10;46.10;;;;;;5053920;28;20441;-76
2022/07/15 03:20:58;;;;;;;2.63;1.17;;;25.10;46.10;;;;;;5044305;28;20439;-76
2022/07/15 03:23:26;;;;;;;3.53;1.40;;;25.10;46.20;;;;;;5033838;28;20456;-76
2022/07/15 03:25:54;;;;;;;4.80;1.57;;;25.10;46.30;;;;;;5033662;28;20410;-76
2022/07/15 03:28:22;;;;;;;2.10;1.20;;;25.00;46.20;;;;;;5033799;28;20450;-76
2022/07/15 03:30:49;;;;;;;1.53;1.13;;;25.00;46.30;;;;;;5033784;28;20530;-76
2022/07/15 03:33:17;;;;;;;2.30;1.50;;;25.00;46.30;;;;;;5033380;28;20527;-76
2022/07/15 03:35:45;;;;;;;4.10;1.30;;;25.00;46.40;;;;;;5033511;28;20426;-76
2022/07/15 03:38:15;;;;;;;1.93;1.10;;;25.00;46.40;;;;;;5033893;28;20444;-76
2022/07/15 03:40:43;;;;;;;2.53;1.57;;;24.90;46.40;;;;;;5033595;28;20887;-76
2022/07/15 03:43:10;;;;;;;3.37;1.50;;;24.90;46.50;;;;;;5033305;28;20455;-76
2022/07/15 03:45:38;;;;;;;4.10;1.40;;;24.90;46.50;;;;;;5039161;28;20425;-76
2022/07/15 03:48:06;;;;;;;2.97;1.20;;;24.90;46.50;;;;;;5041210;28;20923;-76
2022/07/15 03:50:35;;;;;;;1.83;1.03;;;24.90;46.60;;;;;;5033165;28;20458;-76
2022/07/15 03:53:02;;;;;;;3.57;1.17;;;24.90;46.50;;;;;;5032630;28;20982;-76
2022/07/15 03:55:32;;;;;;;3.07;1.30;;;24.90;46.40;;;;;;5033218;28;20490;-75
2022/07/15 03:57:59;;;;;;;3.43;1.30;;;24.90;46.60;;;;;;5032985;28;20460;-75
2022/07/15 04:00:27;;;;;;;4.00;1.40;;;24.90;46.60;;;;;;5033243;28;20442;-75
2022/07/15 04:02:55;;;;;;;2.50;1.40;;;25.00;46.70;;;;;;5033277;28;20440;-76
2022/07/15 04:05:23;;;;;;;2.70;1.17;;;24.90;46.40;;;;;;5033283;28;20434;-75
2022/07/15 04:07:50;;;;;;;3.73;1.77;;;24.90;46.40;;;;;;5032817;28;20410;-75
2022/07/15 04:10:18;;;;;;;1.97;1.20;;;24.90;46.30;;;;;;5033120;28;20448;-75
2022/07/15 04:12:47;;;;;;;2.13;1.23;;;24.90;46.40;;;;;;5032659;28;20437;-76
2022/07/15 04:15:15;;;;;;;2.60;1.50;;;24.90;46.30;;;;;;5045764;28;20430;-76
2022/07/15 04:17:43;;;;;;;2.00;1.30;;;24.90;46.20;;;;;;5051014;28;20449;-75
2022/07/15 04:20:12;;;;;;;1.77;1.27;;;24.90;46.20;;;;;;5050187;28;20786;-76
2022/07/15 04:22:40;;;;;;;1.63;1.40;;;24.90;46.20;;;;;;5052430;28;20444;-76
2022/07/15 04:25:09;;;;;;;5.53;1.50;;;24.90;46.20;;;;;;5052583;28;20492;-76
2022/07/15 04:27:36;;;;;;;6.27;1.17;;;24.90;46.30;;;;;;5052188;28;20410;-76
2022/07/15 04:30:07;;;;;;;1.80;1.20;;;24.90;46.30;;;;;;5052817;28;20447;-76
2022/07/15 04:32:34;;;;;;;3.13;1.20;;;24.90;46.30;;;;;;5052440;28;20426;-76
2022/07/15 04:35:02;;;;;;;2.80;1.23;;;25.00;46.40;;;;;;5052033;28;20450;-76
2022/07/15 04:37:30;;;;;;;2.53;1.33;;;25.00;46.30;;;;;;5052380;28;20808;-76
2022/07/15 04:39:58;;;;;;;2.80;1.27;;;25.00;46.40;;;;;;5052307;28;20500;-75
2022/07/15 04:42:25;;;;;;;3.23;1.20;;;25.00;46.30;;;;;;5052539;28;20496;-76
2022/07/15 04:44:54;;;;;;;2.00;1.10;;;25.00;46.30;;;;;;5052288;28;20421;-76
2022/07/15 04:47:23;;;;;;;2.60;1.30;;;25.00;46.20;;;;;;5052321;28;20406;-76
2022/07/15 04:52:36;;;;;;;1.67;1.17;;;25.00;46.10;;;;;;5051869;28;20509;-76
2022/07/15 04:55:04;;;;;;;2.23;1.43;;;25.00;46.30;;;;;;5052282;28;20431;-76
2022/07/15 04:57:31;;;;;;;3.63;1.20;;;25.00;46.20;;;;;;5052215;28;20467;-76
2022/07/15 04:59:59;;;;;;;3.67;1.40;;;25.00;46.80;;;;;;5052116;28;20428;-76
2022/07/15 05:02:28;;;;;;;1.30;1.20;;;25.00;46.10;;;;;;5051869;28;20424;-76
2022/07/15 05:04:56;;;;;;;2.43;1.13;;;25.00;46.10;;;;;;5052271;28;20512;-76
2022/07/15 05:07:24;;;;;;;1.93;1.30;;;25.00;46.20;;;;;;5051772;28;20533;-75
2022/07/15 05:09:52;;;;;;;2.43;1.13;;;25.00;46.20;;;;;;5051922;28;20532;-76
2022/07/15 05:12:20;;;;;;;2.93;1.13;;;25.00;46.10;;;;;;5051745;28;20417;-76
2022/07/15 05:14:48;;;;;;;2.13;1.30;;;25.00;46.10;;;;;;5051765;28;20453;-76
2022/07/15 05:17:16;;;;;;;2.33;0.90;;;25.10;45.90;;;;;;5051804;28;20460;-76
2022/07/15 05:19:46;;;;;;;1.40;1.00;;;25.10;45.70;;;;;;5051694;28;20425;-76
2022/07/15 05:22:16;;;;;;;2.80;1.30;;;25.10;45.60;;;;;;5031880;28;20484;-75
2022/07/15 05:24:44;;;;;;;1.63;1.20;;;25.10;45.60;;;;;;5031661;28;20443;-75
2022/07/15 05:27:12;;;;;;;2.13;0.90;;;25.10;45.70;;;;;;5031743;28;20489;-75
2022/07/15 05:29:40;;;;;;;1.30;1.20;;;25.20;45.70;;;;;;5031815;28;20447;-76
2022/07/15 05:32:08;;;;;;;1.10;1.00;;;25.20;45.70;;;;;;5032297;28;20454;-75
2022/07/15 05:34:36;;;;;;;2.93;1.07;;;25.20;45.70;;;;;;5031661;28;20480;-75
2022/07/15 05:37:06;;;;;;;1.87;0.97;;;25.30;45.70;;;;;;5031530;28;20479;-76
2022/07/15 05:39:33;;;;;;;2.30;1.20;;;25.30;45.50;;;;;;5031940;28;20534;-75
2022/07/15 05:42:01;;;;;;;1.97;0.90;;;25.40;45.50;;;;;;5031400;28;20450;-75
2022/07/15 05:44:29;;;;;;;5.53;1.30;;;25.40;45.40;;;;;;5031335;28;20606;-76
2022/07/15 05:46:57;;;;;;;2.60;1.40;;;25.40;45.40;;;;;;5031665;28;20511;-76
2022/07/15 05:49:25;;;;;;;4.30;1.30;;;25.40;45.40;;;;;;5031597;28;20433;-76
2022/07/15 05:51:52;;;;;;;2.00;1.07;;;25.40;45.30;;;;;;5031426;28;21029;-76
2022/07/15 05:54:22;;;;;;;3.67;1.20;;;25.50;45.40;;;;;;5031260;28;20539;-75
2022/07/15 05:56:49;;;;;;;1.10;1.00;;;25.40;45.10;;;;;;5031339;28;20504;-76
2022/07/15 05:59:17;;;;;;;2.93;1.40;;;25.40;45.10;;;;;;5031291;28;20540;-76
2022/07/15 06:01:46;;;;;;;1.10;0.90;;;25.50;45.20;;;;;;5031208;28;20435;-75
2022/07/15 06:04:14;;;;;;;2.30;1.30;;;25.50;45.20;;;;;;5031346;28;20521;-75
2022/07/15 06:06:42;;;;;;;1.63;0.90;;;25.50;45.20;;;;;;5031376;28;20443;-75
2022/07/15 06:09:10;;;;;;;1.20;1.07;;;25.50;45.20;;;;;;5031434;28;20760;-76
2022/07/15 06:11:39;;;;;;;2.67;1.20;;;25.50;45.20;;;;;;5031010;28;20417;-76
2022/07/15 06:14:07;;;;;;;1.60;1.00;;;25.50;45.20;;;;;;5031597;28;20558;-76
2022/07/15 06:16:35;;;;;;;3.13;1.10;;;25.50;45.20;;;;;;5035181;28;20530;-76
2022/07/15 06:19:03;;;;;;;2.03;1.43;;;25.50;45.30;;;;;;5035148;28;20471;-76
2022/07/15 06:21:31;;;;;;;1.67;1.23;;;25.60;45.20;;;;;;5049798;28;20513;-76
2022/07/15 06:23:59;;;;;;;2.63;1.10;;;25.60;45.00;;;;;;5055221;28;20553;-76
2022/07/15 06:26:27;;;;;;;3.00;1.10;;;25.70;45.10;;;;;;5054888;28;20541;-76
2022/07/15 06:28:56;;;;;;;3.00;1.17;;;25.70;45.00;;;;;;5055103;28;20419;-76
2022/07/15 06:31:24;;;;;;;1.10;1.00;;;25.70;45.00;;;;;;5055148;28;20446;-76
2022/07/15 06:33:52;;;;;;;1.83;1.20;;;25.70;44.90;;;;;;5054950;28;20557;-76
2022/07/15 06:36:20;;;;;;;1.90;0.80;;;25.80;44.80;;;;;;5054862;28;20421;-76
2022/07/15 06:38:49;;;;;;;1.47;1.30;;;25.80;44.70;;;;;;5054406;28;20441;-76
2022/07/15 06:41:18;;;;;;;2.07;1.00;;;25.80;44.70;;;;;;5054980;28;20417;-76
2022/07/15 06:43:46;;;;;;;1.43;1.03;;;25.80;44.70;;;;;;5054718;28;20437;-76
2022/07/15 06:46:15;;;;;;;4.70;1.20;;;25.80;44.60;;;;;;5054622;28;20421;-76
2022/07/15 06:48:43;;;;;;;1.30;0.90;;;25.80;44.60;;;;;;5054378;28;20526;-76
2022/07/15 06:51:12;;;;;;;4.60;1.00;;;25.90;44.60;;;;;;5054441;28;20537;-76
2022/07/15 06:53:40;;;;;;;1.60;1.00;;;25.90;44.60;;;;;;5054364;28;20467;-76
2022/07/15 06:56:08;;;;;;;1.23;1.00;;;25.90;44.50;;;;;;5054488;28;20446;-76
2022/07/15 06:58:36;;;;;;;1.47;0.80;;;25.90;44.50;;;;;;5054097;28;20445;-76
2022/07/15 07:01:04;;;;;;;1.23;0.90;;;26.00;44.40;;;;;;5054612;28;20449;-76
2022/07/15 07:03:34;;;;;;;0.90;0.90;;;26.00;44.40;;;;;;5054491;28;20468;-76
2022/07/15 07:06:22;;;;;;;1.10;1.00;;;26.00;44.40;;;;;;5054291;28;20419;-76
2022/07/15 07:08:52;;;;;;;1.73;0.87;;;26.00;44.40;;;;;;5054194;28;20501;-76
2022/07/15 07:11:20;;;;;;;1.20;1.10;;;26.10;44.40;;;;;;5054211;28;20449;-76
2022/07/15 07:13:48;;;;;;;1.40;0.80;;;26.20;44.40;;;;;;5053720;28;20466;-76
2022/07/15 07:16:16;;;;;;;1.47;0.97;;;26.30;44.20;;;;;;5054025;28;20417;-76
2022/07/15 07:18:47;;;;;;;2.40;1.20;;;26.30;44.10;;;;;;5053990;28;20504;-76
2022/07/15 07:21:15;;;;;;;1.77;1.20;;;26.40;44.00;;;;;;5041936;28;20440;-76
2022/07/15 07:23:44;;;;;;;1.10;1.00;;;26.50;44.00;;;;;;5033992;28;20438;-76
2022/07/15 07:26:12;;;;;;;3.03;1.20;;;26.60;43.90;;;;;;5033214;28;20419;-76
2022/07/15 07:28:40;;;;;;;1.00;0.80;;;26.60;43.80;;;;;;5033797;28;20439;-76
2022/07/15 07:31:08;;;;;;;2.60;0.80;;;26.70;43.70;;;;;;5033770;28;20447;-76
2022/07/15 07:33:37;;;;;;;1.27;0.87;;;26.80;43.50;;;;;;5033747;28;20474;-76
2022/07/15 07:36:06;;;;;;;1.00;0.90;;;26.80;43.40;;;;;;5033883;28;20461;-76
2022/07/15 07:38:35;;;;;;;3.23;1.07;;;26.90;43.30;;;;;;5033457;28;20454;-76
2022/07/15 07:41:03;;;;;;;1.10;1.00;;;27.00;43.30;;;;;;5033703;28;20429;-76
2022/07/15 07:43:32;;;;;;;1.43;1.33;;;27.10;43.10;;;;;;5034071;28;20489;-76
2022/07/15 07:46:00;;;;;;;4.50;1.13;;;27.10;42.90;;;;;;5033381;28;20474;-76
2022/07/15 07:48:29;;;;;;;1.60;0.90;;;27.20;42.80;;;;;;5033631;28;20498;-76
2022/07/15 07:50:56;;;;;;;1.30;0.83;;;27.20;42.80;;;;;;5033394;28;20509;-76
2022/07/15 07:53:25;;;;;;;1.10;1.00;;;27.30;42.80;;;;;;5033308;28;20460;-76
2022/07/15 07:55:53;;;;;;;0.90;0.80;;;27.30;42.60;;;;;;5033110;28;20539;-76
2022/07/15 07:58:21;;;;;;;1.93;1.00;;;27.30;42.70;;;;;;5033416;28;20449;-76
2022/07/15 08:00:51;;;;;;;1.37;0.90;;;27.30;42.60;;;;;;5039224;28;20441;-76
2022/07/15 08:03:19;;;;;;;1.20;0.90;;;27.30;42.50;;;;;;5049083;28;20477;-76
2022/07/15 08:05:47;;;;;;;1.30;0.80;;;27.40;42.50;;;;;;5042510;28;20888;-76
2022/07/15 08:08:16;;;;;;;1.87;0.80;;;27.40;42.40;;;;;;5052866;28;20529;-76
2022/07/15 08:10:46;;;;;;;1.57;0.80;;;27.40;42.40;;;;;;5053202;28;20484;-76
2022/07/15 08:13:14;;;;;;;1.10;0.90;;;27.40;42.30;;;;;;5052929;28;20458;-76
2022/07/15 08:15:42;;;;;;;1.50;0.70;;;27.40;42.30;;;;;;5052770;28;20472;-76
2022/07/15 08:18:10;;;;;;;4.40;0.80;;;27.40;42.40;;;;;;5053210;28;20413;-76
2022/07/15 08:20:38;;;;;;;0.80;0.80;;;27.50;42.50;;;;;;5052658;28;20474;-76
2022/07/15 08:23:06;;;;;;;1.70;0.87;;;27.50;42.40;;;;;;5052518;28;20466;-75
2022/07/15 08:25:35;;;;;;;1.93;0.83;;;27.50;42.40;;;;;;5052621;28;20417;-75
2022/07/15 08:28:04;;;;;;;1.13;0.90;;;27.50;42.50;;;;;;5052659;28;20417;-75
2022/07/15 08:30:33;;;;;;;0.80;0.70;;;27.50;42.60;;;;;;5052691;28;20526;-76
2022/07/15 08:33:01;;;;;;;6.40;0.80;;;27.60;42.40;;;;;;5052613;28;20531;-76
2022/07/15 08:35:29;;;;;;;1.33;0.70;;;27.70;42.40;;;;;;5052308;28;20496;-76
2022/07/15 08:37:57;;;;;;;1.27;0.80;;;27.70;42.20;;;;;;5052608;28;20469;-75
2022/07/15 08:40:25;;;;;;;2.63;1.00;;;27.80;42.20;;;;;;5052376;28;20560;-76
2022/07/15 08:42:53;;;;;;;2.20;0.97;;;27.90;42.10;;;;;;5052255;28;20467;-76
2022/07/15 08:45:22;;;;;;;5.83;0.80;;;27.90;42.00;;;;;;5052503;28;20509;-75
2022/07/15 08:47:51;;;;;;;4.97;0.80;;;28.00;42.00;;;;;;5052397;28;20457;-76
2022/07/15 08:50:22;;;;;;;1.17;0.83;;;28.10;42.00;;;;;;5052307;28;20886;-75
2022/07/15 08:52:51;;;;;;;1.00;0.70;;;28.40;42.00;;;;;;5052020;28;20459;-75
2022/07/15 08:55:19;;;;;;;6.77;0.90;;;28.60;41.60;;;;;;5052214;28;20439;-76
2022/07/15 08:57:47;;;;;;;1.70;0.70;;;28.60;41.40;;;;;;5051914;28;20442;-75
2022/07/15 09:00:16;;;;;;;6.57;0.97;;;28.60;41.30;;;;;;5052026;28;20561;-75
2022/07/15 09:02:46;;;;;;;4.60;0.83;;;28.50;41.30;;;;;;5051779;28;20597;-74
2022/07/15 09:05:21;;;;;;;2.90;1.00;;;28.30;41.30;;;;;;5052197;28;20406;-75
2022/07/15 09:07:54;;;;;;;1.33;0.90;;;28.20;41.50;;;;;;5051993;28;20467;-75
2022/07/15 09:10:22;;;;;;;4.40;0.93;;;28.10;41.60;;;;;;5052102;28;20930;-76
2022/07/15 09:12:50;;;;;;;3.53;0.70;;;28.10;41.60;;;;;;5051599;28;20550;-75
2022/07/15 09:15:31;;;;;;;2.33;1.20;;;28.00;41.60;;;;;;5051640;28;20533;-76
2022/07/15 09:18:08;;;;;;;1.33;0.90;;;28.00;41.70;;;;;;5051908;28;20445;-75
2022/07/15 09:20:36;;;;;;;1.47;0.70;;;27.90;41.70;;;;;;5051572;28;20444;-75
2022/07/15 09:23:04;;;;;;;1.03;0.93;;;27.90;41.80;;;;;;5051586;28;20469;-75
2022/07/15 09:25:34;;;;;;;1.23;0.80;;;27.90;41.80;;;;;;5051523;28;20504;-75
2022/07/15 09:28:02;;;;;;;1.20;0.80;;;27.80;41.80;;;;;;5051433;28;20438;-75
2022/07/15 09:33:35;;;;;;;1.57;0.77;;;27.70;41.80;;;;;;5051498;28;20516;-75
2022/07/15 09:36:11;;;;;;;1.33;0.73;;;27.70;41.90;;;;;;5051372;28;20481;-75
2022/07/15 09:38:42;;;;;;;1.23;0.70;;;27.60;41.90;;;;;;5051774;28;20439;-75
2022/07/15 09:41:11;;;;;;;2.40;0.80;;;27.60;42.00;;;;;;5051519;28;20995;-75
2022/07/15 09:43:47;;;;;;;3.37;0.83;;;27.60;42.20;;;;;;5051233;28;20458;-74
2022/07/15 09:46:14;;;;;;;4.53;0.80;;;27.60;42.10;;;;;;5051488;28;20528;-75
2022/07/15 09:48:45;;;;;;;1.77;0.70;;;27.60;42.20;;;;;;5050876;28;20446;-75
2022/07/15 09:51:14;;;;;;;2.90;0.90;;;27.50;42.20;;;;;;5051287;28;20443;-75
2022/07/15 09:53:43;;;;;;;1.00;0.70;;;27.50;42.30;;;;;;5051380;28;20520;-75
2022/07/15 09:56:14;;;;;;;0.73;0.70;;;27.50;42.30;;;;;;5051286;28;20435;-75
2022/07/15 09:58:43;;;;;;;1.10;0.80;;;27.50;42.40;;;;;;5051279;28;20461;-75
2022/07/15 10:01:12;;;;;;;1.03;0.70;;;27.50;42.40;;;;;;5051066;28;20565;-75
2022/07/15 10:03:40;;;;;;;2.67;0.90;;;27.50;42.40;;;;;;5051568;28;20441;-76
2022/07/15 10:06:10;;;;;;;0.60;0.60;;;27.40;42.40;;;;;;5051902;28;20478;-75
2022/07/15 10:08:38;;;;;;;1.73;0.70;;;27.40;42.40;;;;;;5051176;28;20432;-75
2022/07/15 10:11:11;;;;;;;0.90;0.70;;;27.40;42.40;;;;;;5051321;28;20500;-75
2022/07/15 10:13:53;;;;;;;0.70;0.70;;;27.50;42.50;;;;;;5050912;28;20433;-75
2022/07/15 10:16:42;;;;;;;0.83;0.70;;;27.60;43.20;;;;;;5051418;28;20431;-75
2022/07/15 10:19:11;;;;;;;1.30;0.70;;;27.60;42.40;;;;;;5051415;28;20455;-75
2022/07/15 10:21:44;;;;;;;1.30;0.70;;;27.80;42.40;;;;;;5051021;28;20430;-75
2022/07/15 10:24:49;;;;;;;0.93;0.70;;;28.00;42.80;;;;;;5051015;28;21032;-75
2022/07/15 10:27:46;;;;;;;2.10;0.60;;;28.30;42.30;;;;;;5009000;28;20451;-75
2022/07/15 10:30:13;;;;;;;0.83;0.83;;;28.60;41.80;;;;;;5009069;28;20504;-75
2022/07/15 10:33:06;;;;;;;0.70;0.60;;;28.90;41.40;;;;;;5037195;28;20497;-76
2022/07/15 10:35:34;;;;;;;1.00;0.83;;;29.10;41.30;;;;;;5045389;28;20545;-76
2022/07/15 10:38:28;;;;;;;0.70;0.70;;;29.40;40.90;;;;;;5051035;28;20517;-75
2022/07/15 10:41:01;;;;;;;1.43;0.80;;;29.60;40.90;;;;;;5050961;28;20470;-75
2022/07/15 10:43:43;;;;;;;1.30;0.70;;;30.00;40.50;;;;;;5051009;28;20554;-75
2022/07/15 10:46:19;;;;;;;1.33;0.73;;;30.30;39.90;;;;;;5050875;28;20510;-76
2022/07/15 10:48:48;;;;;;;1.13;0.63;;;30.60;39.80;;;;;;5050688;28;20438;-76
2022/07/15 10:51:46;;;;;;;0.93;0.60;;;31.00;39.10;;;;;;5050706;28;20438;-75
2022/07/15 10:54:40;;;;;;;0.93;0.67;;;31.00;38.70;;;;;;5050766;28;20518;-76
2022/07/15 10:57:08;;;;;;;2.60;0.80;;;31.00;38.70;;;;;;5045354;28;20438;-76
2022/07/15 10:59:37;;;;;;;1.20;0.63;;;31.00;38.50;;;;;;5050774;28;20468;-76
2022/07/15 11:02:15;;;;;;;1.10;0.60;;;31.20;38.70;;;;;;5054096;28;20446;-76
2022/07/15 11:04:44;;;;;;;1.00;0.60;;;31.30;38.40;;;;;;5054278;28;20438;-76
2022/07/15 11:07:38;;;;;;;0.80;0.70;;;31.60;38.40;;;;;;5054283;28;20541;-76
2022/07/15 11:10:17;;;;;;;0.73;0.50;;;31.90;38.70;;;;;;5054315;28;20506;-76
2022/07/15 11:13:07;;;;;;;0.87;0.87;;;32.30;37.60;;;;;;5054171;28;20454;-76
2022/07/15 11:15:34;;;;;;;0.60;0.60;;;32.40;36.60;;;;;;5053958;28;20436;-76
2022/07/15 11:18:03;;;;;;;0.97;0.87;;;32.20;36.40;;;;;;5053966;28;20439;-75
2022/07/15 11:20:38;;;;;;;1.37;0.80;;;32.00;36.70;;;;;;5053904;28;20474;-75
2022/07/15 11:23:07;;;;;;;1.03;0.60;;;32.00;37.30;;;;;;5054012;28;20459;-76
2022/07/15 11:25:38;;;;;;;3.27;0.80;;;32.20;37.40;;;;;;5054117;28;20431;-76
2022/07/15 11:28:10;;;;;;;0.80;0.60;;;33.00;36.60;;;;;;5053920;28;20438;-76
2022/07/15 11:30:39;;;;;;;0.80;0.80;;;34.20;35.10;;;;;;5053522;28;20525;-75
2022/07/15 11:33:08;;;;;;;1.30;0.87;;;35.40;33.50;;;;;;5053815;28;20454;-76
2022/07/15 11:35:47;;;;;;;0.80;0.70;;;36.50;31.90;;;;;;5053341;28;20533;-76
2022/07/15 11:38:15;;;;;;;0.70;0.70;;;37.40;30.00;;;;;;5053611;28;20474;-77
2022/07/15 11:46:17;;;;;;;0.60;0.60;;;35.30;31.10;;;;;;5053695;28;20434;-76
2022/07/15 11:48:46;;;;;;;0.67;0.63;;;34.40;32.90;;;;;;5053477;28;20431;-76
2022/07/15 11:51:14;;;;;;;0.60;0.60;;;33.70;33.10;;;;;;5053130;28;20431;-76
2022/07/15 11:53:42;;;;;;;0.93;0.60;;;33.20;33.70;;;;;;5053496;28;20464;-76
2022/07/15 11:56:12;;;;;;;1.63;0.63;;;32.80;34.30;;;;;;5053218;28;20503;-76
2022/07/15 11:58:42;;;;;;;0.60;0.60;;;32.40;34.70;;;;;;5053431;28;20445;-76
2022/07/15 12:01:11;;;;;;;0.73;0.70;;;32.20;35.20;;;;;;5052954;28;20476;-76
2022/07/15 12:03:40;;;;;;;0.57;0.57;;;32.00;35.50;;;;;;5053180;28;20458;-75
2022/07/15 12:06:14;;;;;;;1.00;0.70;;;31.90;35.60;;;;;;5053035;28;20442;-76
2022/07/15 12:08:47;;;;;;;1.03;0.70;;;32.00;35.80;;;;;;5053234;28;20467;-76
2022/07/15 12:11:18;;;;;;;0.60;0.60;;;32.20;35.70;;;;;;5052962;28;20476;-76
2022/07/15 12:13:48;;;;;;;0.67;0.67;;;32.80;35.70;;;;;;5052098;28;20481;-76
2022/07/15 12:16:18;;;;;;;0.63;0.60;;;34.40;33.80;;;;;;5052804;28;20530;-76
2022/07/15 12:18:48;;;;;;;1.17;0.57;;;35.40;32.00;;;;;;5052961;28;20438;-76
2022/07/15 12:21:16;;;;;;;0.60;0.60;;;36.10;31.20;;;;;;5053045;28;20496;-76
2022/07/15 12:24:01;;;;;;;0.90;0.60;;;36.10;30.40;;;;;;5052535;28;20471;-77
2022/07/15 12:26:31;;;;;;;0.90;0.80;;;36.10;30.90;;;;;;5052211;28;20473;-76
2022/07/15 12:29:00;;;;;;;0.67;0.60;;;36.10;30.40;;;;;;5052460;28;20800;-76
2022/07/15 12:31:29;;;;;;;0.60;0.60;;;36.50;30.50;;;;;;5052278;28;20435;-76
2022/07/15 12:33:57;;;;;;;0.70;0.67;;;37.30;30.00;;;;;;5052339;28;20454;-76
2022/07/15 12:36:27;;;;;;;0.73;0.70;;;37.60;29.40;;;;;;5052410;28;20435;-76
2022/07/15 12:39:15;;;;;;;0.90;0.60;;;37.00;29.20;;;;;;5052295;28;20450;-76
2022/07/15 12:42:00;;;;;;;0.80;0.60;;;36.10;29.90;;;;;;5052530;28;20474;-75
2022/07/15 12:44:30;;;;;;;0.83;0.60;;;35.20;30.60;;;;;;5052775;28;20561;-76
2022/07/15 12:46:58;;;;;;;0.60;0.60;;;34.60;31.40;;;;;;5052975;28;20500;-76
2022/07/15 12:49:44;;;;;;;0.83;0.60;;;34.00;32.10;;;;;;5052636;28;20545;-76
2022/07/15 12:52:14;;;;;;;1.03;0.60;;;33.50;33.00;;;;;;5052226;28;20442;-76
2022/07/15 12:54:41;;;;;;;0.77;0.63;;;33.10;33.30;;;;;;5051984;28;20989;-76
2022/07/15 12:57:21;;;;;;;0.70;0.70;;;32.80;33.70;;;;;;5051915;28;20445;-76
2022/07/15 12:59:52;;;;;;;1.57;0.80;;;32.60;34.20;;;;;;5052104;28;20430;-77
2022/07/15 13:02:21;;;;;;;1.00;0.60;;;32.40;34.20;;;;;;5051773;28;20475;-76
2022/07/15 13:04:49;;;;;;;0.70;0.70;;;32.40;34.50;;;;;;5052195;28;20434;-76
2022/07/15 13:07:17;;;;;;;2.73;0.63;;;32.30;34.70;;;;;;5051980;28;20442;-77
2022/07/15 13:09:45;;;;;;;0.50;0.50;;;32.30;34.70;;;;;;5052025;28;20447;-76
2022/07/15 13:12:14;;;;;;;1.27;0.60;;;32.20;34.60;;;;;;5051582;28;20443;-76
2022/07/15 13:14:43;;;;;;;0.70;0.70;;;32.10;34.60;;;;;;5051586;28;20458;-76